createdAt,value
2018-01-15T00:02:19.193Z,101237.86
2018-01-15T00:04:46.874Z,101230.23
2018-01-15T00:07:16.753Z,101226.56
2018-01-15T00:09:44.426Z,101225.24
2018-01-15T00:12:12.042Z,101221.58
2018-01-15T00:14:39.785Z,101217.72
2018-01-15T00:17:07.492Z,101210.89
2018-01-15T00:19:35.170Z,101212.74
2018-01-15T00:22:02.863Z,101210.09
2018-01-15T00:24:30.575Z,101207.23
2018-01-15T00:26:58.290Z,101202.27
2018-01-15T00:29:25.995Z,101201.05
2018-01-15T00:31:53.666Z,101193.29
2018-01-15T00:34:21.357Z,101193.30
2018-01-15T00:36:49.057Z,101192.29
2018-01-15T00:39:16.765Z,101182.44
2018-01-15T00:41:44.432Z,101178.37
2018-01-15T00:44:12.125Z,101179.97
2018-01-15T00:46:39.794Z,101175.11
2018-01-15T00:49:07.442Z,101178.55
2018-01-15T00:51:35.117Z,101186.11
2018-01-15T00:54:02.853Z,101185.91
2018-01-15T00:56:30.531Z,101174.59
2018-01-15T00:58:58.237Z,101166.77
2018-01-15T01:01:25.912Z,101163.91
2018-01-15T01:03:53.615Z,101151.72
2018-01-15T01:06:21.310Z,101157.92
2018-01-15T01:08:49.039Z,101155.16
2018-01-15T01:11:16.720Z,101154.95
2018-01-15T01:13:44.432Z,101158.53
2018-01-15T01:16:12.121Z,101153.34
2018-01-15T01:18:39.821Z,101156.48
2018-01-15T01:21:07.549Z,101151.80
2018-01-15T01:23:35.345Z,101140.11
2018-01-15T01:26:03.036Z,101141.22
2018-01-15T01:28:30.757Z,101143.86
2018-01-15T01:30:58.442Z,101138.78
2018-01-15T01:33:26.153Z,101134.41
2018-01-15T01:35:53.838Z,101131.75
2018-01-15T01:38:21.546Z,101123.30
2018-01-15T01:40:49.261Z,101126.05
2018-01-15T01:43:16.957Z,101120.16
2018-01-15T01:45:44.698Z,101116.19
2018-01-15T01:48:12.429Z,101116.19
2018-01-15T01:50:40.117Z,101116.28
2018-01-15T01:53:07.811Z,101114.97
2018-01-15T01:55:35.481Z,101101.12
2018-01-15T01:58:03.189Z,101093.39
2018-01-15T02:00:30.873Z,101097.78
2018-01-15T02:02:58.594Z,101093.82
2018-01-15T02:05:26.259Z,101091.98
2018-01-15T02:07:54.041Z,101086.80
2018-01-15T02:10:21.726Z,101092.30
2018-01-15T02:12:49.481Z,101079.77
2018-01-15T02:15:17.158Z,101080.08
2018-01-15T02:17:44.857Z,101073.56
2018-01-15T02:20:12.521Z,101080.87
2018-01-15T02:22:40.255Z,101071.93
2018-01-15T02:25:07.913Z,101062.25
2018-01-15T02:27:35.614Z,101061.23
2018-01-15T02:30:03.204Z,101066.84
2018-01-15T02:32:30.909Z,101058.27
2018-01-15T02:34:58.586Z,101056.25
2018-01-15T02:37:26.290Z,101058.38
2018-01-15T02:39:53.966Z,101048.80
2018-01-15T02:42:21.698Z,101047.88
2018-01-15T02:44:49.378Z,101038.52
2018-01-15T02:47:17.126Z,101038.09
2018-01-15T02:49:44.794Z,101038.20
2018-01-15T02:52:12.525Z,101033.63
2018-01-15T02:54:40.218Z,101029.94
2018-01-15T02:57:07.843Z,101024.64
2018-01-15T02:59:35.530Z,101018.86
2018-01-15T03:02:03.226Z,101008.16
2018-01-15T03:04:30.890Z,101004.68
2018-01-15T03:06:58.529Z,100994.30
2018-01-15T03:09:26.221Z,100995.63
2018-01-15T03:11:53.842Z,101000.81
2018-01-15T03:14:21.537Z,100993.19
2018-01-15T03:16:49.297Z,100981.78
2018-01-15T03:19:16.985Z,100981.16
2018-01-15T03:21:44.690Z,100979.93
2018-01-15T03:24:12.361Z,100980.73
2018-01-15T03:26:40.078Z,100971.06
2018-01-15T03:29:07.788Z,100968.90
2018-01-15T03:31:35.530Z,100967.47
2018-01-15T03:34:03.194Z,100958.51
2018-01-15T03:36:30.893Z,100968.98
2018-01-15T03:38:58.597Z,100953.72
2018-01-15T03:41:26.304Z,100952.57
2018-01-15T03:43:53.981Z,100946.56
2018-01-15T03:46:21.603Z,100937.99
2018-01-15T03:48:49.293Z,100936.56
2018-01-15T03:51:16.916Z,100941.47
2018-01-15T03:53:44.617Z,100934.64
2018-01-15T03:56:12.286Z,100930.03
2018-01-15T03:58:39.957Z,100920.16
2018-01-15T04:01:07.677Z,100914.87
2018-01-15T04:03:35.378Z,100913.02
2018-01-15T04:06:03.066Z,100904.53
2018-01-15T04:08:30.685Z,100904.84
2018-01-15T04:10:58.292Z,100901.39
2018-01-15T04:13:25.982Z,100895.46
2018-01-15T04:15:53.622Z,100890.99
2018-01-15T04:18:21.305Z,100891.16
2018-01-15T04:20:48.958Z,100894.95
2018-01-15T04:23:16.642Z,100893.63
2018-01-15T04:25:44.354Z,100895.06
2018-01-15T04:28:11.941Z,100894.23
2018-01-15T04:30:39.561Z,100895.95
2018-01-15T04:33:07.166Z,100886.27
2018-01-15T04:35:34.786Z,100887.48
2018-01-15T04:38:02.369Z,100884.31
2018-01-15T04:40:30.012Z,100879.71
2018-01-15T04:42:57.603Z,100877.26
2018-01-15T04:45:25.218Z,100863.05
2018-01-15T04:47:52.814Z,100861.23
2018-01-15T04:50:20.431Z,100850.63
2018-01-15T04:52:48.023Z,100843.59
2018-01-15T04:55:15.753Z,100848.48
2018-01-15T04:57:43.360Z,100844.53
2018-01-15T05:00:11.030Z,100835.65
2018-01-15T05:02:38.655Z,100835.30
2018-01-15T05:05:06.254Z,100833.48
2018-01-15T05:07:34.010Z,100831.77
2018-01-15T05:10:01.688Z,100839.23
2018-01-15T05:12:29.386Z,100841.90
2018-01-15T05:14:56.985Z,100831.94
2018-01-15T05:17:24.605Z,100833.28
2018-01-15T05:19:52.211Z,100830.82
2018-01-15T05:22:19.906Z,100835.23
2018-01-15T05:24:47.571Z,100820.58
2018-01-15T05:27:15.197Z,100820.20
2018-01-15T05:29:42.858Z,100814.72
2018-01-15T05:32:10.515Z,100808.12
2018-01-15T05:34:38.130Z,100810.45
2018-01-15T05:37:05.759Z,100811.20
2018-01-15T05:39:33.434Z,100812.98
2018-01-15T05:42:01.122Z,100803.93
2018-01-15T05:44:28.800Z,100805.88
2018-01-15T05:46:56.430Z,100802.73
2018-01-15T05:49:24.097Z,100794.10
2018-01-15T05:51:51.794Z,100794.94
2018-01-15T05:54:19.461Z,100791.07
2018-01-15T05:56:47.203Z,100783.72
2018-01-15T05:59:14.894Z,100782.45
2018-01-15T06:01:42.513Z,100779.00
2018-01-15T06:04:10.242Z,100778.41
2018-01-15T06:06:37.941Z,100776.77
2018-01-15T06:09:05.534Z,100778.00
2018-01-15T06:11:33.255Z,100770.95
2018-01-15T06:14:00.934Z,100764.06
2018-01-15T06:16:28.629Z,100757.63
2018-01-15T06:18:56.221Z,100750.00
2018-01-15T06:21:23.965Z,100748.75
2018-01-15T06:23:51.637Z,100739.16
2018-01-15T06:26:19.412Z,100728.42
2018-01-15T06:28:47.113Z,100724.52
2018-01-15T06:31:14.737Z,100718.98
2018-01-15T06:33:42.421Z,100714.58
2018-01-15T06:36:10.145Z,100714.98
2018-01-15T06:38:37.833Z,100704.09
2018-01-15T06:41:05.581Z,100704.70
2018-01-15T06:43:33.259Z,100701.31
2018-01-15T06:46:00.961Z,100701.53
2018-01-15T06:48:28.641Z,100704.63
2018-01-15T06:50:56.326Z,100678.14
2018-01-15T06:53:24.054Z,100677.73
2018-01-15T06:55:51.767Z,100676.52
2018-01-15T06:58:19.435Z,100672.94
2018-01-15T07:00:47.133Z,100667.23
2018-01-15T07:03:14.761Z,100671.31
2018-01-15T07:05:42.461Z,100664.55
2018-01-15T07:08:10.148Z,100666.59
2018-01-15T07:10:37.865Z,100657.80
2018-01-15T07:13:05.463Z,100657.91
2018-01-15T07:15:33.162Z,100656.91
2018-01-15T07:18:00.808Z,100648.64
2018-01-15T07:20:28.509Z,100646.79
2018-01-15T07:22:56.101Z,100636.92
2018-01-15T07:25:23.726Z,100635.45
2018-01-15T07:27:51.308Z,100639.39
2018-01-15T07:30:18.918Z,100642.84
2018-01-15T07:32:46.618Z,100641.63
2018-01-15T07:35:14.312Z,100642.23
2018-01-15T07:37:41.982Z,100644.05
2018-01-15T07:40:09.626Z,100639.28
2018-01-15T07:42:37.225Z,100631.34
2018-01-15T07:45:04.917Z,100634.78
2018-01-15T07:47:32.514Z,100626.42
2018-01-15T07:50:00.204Z,100626.20
2018-01-15T07:52:27.925Z,100622.61
2018-01-15T07:54:56.081Z,100615.96
2018-01-15T07:57:23.750Z,100624.55
2018-01-15T07:59:51.369Z,100626.55
2018-01-15T08:02:18.985Z,100618.50
2018-01-15T08:04:46.614Z,100610.05
2018-01-15T08:07:14.281Z,100608.39
2018-01-15T08:09:41.920Z,100611.13
2018-01-15T08:12:09.562Z,100609.87
2018-01-15T08:14:37.198Z,100617.38
2018-01-15T08:17:04.861Z,100615.33
2018-01-15T08:19:32.554Z,100599.48
2018-01-15T08:22:00.211Z,100597.73
2018-01-15T08:24:27.878Z,100607.66
2018-01-15T08:26:55.473Z,100598.88
2018-01-15T08:29:23.098Z,100597.90
2018-01-15T08:31:50.777Z,100599.48
2018-01-15T08:34:18.374Z,100592.83
2018-01-15T08:36:46.018Z,100590.66
2018-01-15T08:39:13.617Z,100586.42
2018-01-15T08:41:41.251Z,100584.94
2018-01-15T08:44:08.842Z,100579.19
2018-01-15T08:46:36.461Z,100572.22
2018-01-15T08:49:04.076Z,100573.27
2018-01-15T08:51:31.726Z,100570.77
2018-01-15T08:53:59.400Z,100560.80
2018-01-15T08:56:27.021Z,100555.30
2018-01-15T08:58:54.661Z,100543.09
2018-01-15T09:01:22.257Z,100531.42
2018-01-15T09:03:49.943Z,100539.86
2018-01-15T09:06:17.537Z,100527.88
2018-01-15T09:08:45.178Z,100527.03
2018-01-15T09:11:12.770Z,100522.06
2018-01-15T09:13:40.391Z,100514.06
2018-01-15T09:16:08.007Z,100506.65
2018-01-15T09:18:35.638Z,100505.48
2018-01-15T09:21:03.237Z,100507.47
2018-01-15T09:23:30.936Z,100493.33
2018-01-15T09:25:58.562Z,100488.56
2018-01-15T09:28:26.173Z,100495.14
2018-01-15T09:30:53.766Z,100483.88
2018-01-15T09:33:21.467Z,100484.61
2018-01-15T09:35:49.056Z,100475.98
2018-01-15T09:38:16.691Z,100477.48
2018-01-15T09:40:44.283Z,100474.24
2018-01-15T09:43:11.988Z,100470.32
2018-01-15T09:45:39.616Z,100464.36
2018-01-15T09:48:07.242Z,100460.62
2018-01-15T09:50:34.870Z,100453.66
2018-01-15T09:53:02.506Z,100454.91
2018-01-15T09:55:30.130Z,100450.75
2018-01-15T09:57:57.847Z,100451.42
2018-01-15T10:00:25.445Z,100448.03
2018-01-15T10:02:53.077Z,100443.02
2018-01-15T10:05:20.674Z,100447.56
2018-01-15T10:07:48.314Z,100438.78
2018-01-15T10:10:15.911Z,100442.11
2018-01-15T10:12:43.541Z,100435.62
2018-01-15T10:15:11.130Z,100429.94
2018-01-15T10:17:38.752Z,100432.23
2018-01-15T10:20:06.373Z,100434.16
2018-01-15T10:22:34.002Z,100427.45
2018-01-15T10:25:01.633Z,100412.77
2018-01-15T10:27:29.257Z,100405.43
2018-01-15T10:29:56.853Z,100404.03
2018-01-15T10:32:24.484Z,100389.91
2018-01-15T10:34:52.130Z,100382.77
2018-01-15T10:37:19.765Z,100374.14
2018-01-15T10:39:47.350Z,100376.84
2018-01-15T10:42:14.974Z,100363.98
2018-01-15T10:44:42.572Z,100363.59
2018-01-15T10:47:10.194Z,100361.02
2018-01-15T10:49:37.786Z,100356.33
2018-01-15T10:52:05.473Z,100354.92
2018-01-15T10:54:33.081Z,100335.19
2018-01-15T10:57:00.697Z,100336.86
2018-01-15T10:59:29.833Z,100336.94
2018-01-15T11:01:57.613Z,100321.02
2018-01-15T11:04:25.207Z,100314.05
2018-01-15T11:06:52.845Z,100301.20
2018-01-15T11:09:20.430Z,100292.73
2018-01-15T11:11:48.097Z,100282.02
2018-01-15T11:14:15.725Z,100267.34
2018-01-15T11:16:43.302Z,100267.92
2018-01-15T11:19:10.894Z,100256.56
2018-01-15T11:21:38.521Z,100247.55
2018-01-15T11:24:06.102Z,100251.32
2018-01-15T11:26:33.726Z,100237.77
2018-01-15T11:29:01.329Z,100227.63
2018-01-15T11:31:28.954Z,100230.70
2018-01-15T11:33:56.552Z,100224.55
2018-01-15T11:36:24.193Z,100218.73
2018-01-15T11:38:51.799Z,100213.37
2018-01-15T11:41:19.418Z,100196.62
2018-01-15T11:43:47.007Z,100191.64
2018-01-15T11:46:14.601Z,100178.34
2018-01-15T11:48:42.239Z,100167.45
2018-01-15T11:51:09.965Z,100160.67
2018-01-15T11:53:37.612Z,100143.67
2018-01-15T11:56:05.234Z,100130.78
2018-01-15T11:58:32.817Z,100128.69
2018-01-15T12:01:00.434Z,100118.45
2018-01-15T12:03:28.133Z,100099.20
2018-01-15T12:05:55.759Z,100097.23
2018-01-15T12:08:23.344Z,100090.14
2018-01-15T12:10:50.988Z,100091.09
2018-01-15T12:13:18.577Z,100072.08
2018-01-15T12:15:46.203Z,100065.30
2018-01-15T12:18:13.815Z,100060.23
2018-01-15T12:20:41.432Z,100047.47
2018-01-15T12:23:09.026Z,100037.88
2018-01-15T12:25:36.652Z,100024.58
2018-01-15T12:28:04.242Z,100012.98
2018-01-15T12:30:31.888Z,99990.38
2018-01-15T12:32:59.477Z,99985.72
2018-01-15T12:35:27.116Z,99968.30
2018-01-15T12:37:54.725Z,99962.30
2018-01-15T12:40:22.330Z,99954.19
2018-01-15T12:42:50.106Z,99936.77
2018-01-15T12:45:17.744Z,99931.46
2018-01-15T12:47:45.317Z,99928.80
2018-01-15T12:50:12.922Z,99916.73
2018-01-15T12:52:40.561Z,99903.61
2018-01-15T12:55:08.183Z,99895.77
2018-01-15T12:57:35.781Z,99894.59
2018-01-15T13:00:03.420Z,99891.69
2018-01-15T13:02:30.997Z,99877.71
2018-01-15T13:04:58.605Z,99880.22
2018-01-15T13:07:37.837Z,99859.87
2018-01-15T13:10:05.456Z,99855.16
2018-01-15T13:12:33.058Z,99842.53
2018-01-15T13:15:00.678Z,99845.87
2018-01-15T13:17:28.252Z,99829.08
2018-01-15T13:19:55.941Z,99819.50
2018-01-15T13:22:23.530Z,99819.92
2018-01-15T13:24:51.161Z,99819.13
2018-01-15T13:27:18.798Z,99813.94
2018-01-15T13:29:46.417Z,99805.00
2018-01-15T13:32:14.010Z,99791.55
2018-01-15T13:34:41.644Z,99791.83
2018-01-15T13:37:09.209Z,99783.44
2018-01-15T13:39:36.881Z,99775.60
2018-01-15T13:42:04.485Z,99773.65
2018-01-15T13:44:32.134Z,99773.00
2018-01-15T13:46:59.684Z,99782.46
2018-01-15T13:49:27.395Z,99780.63
2018-01-15T13:51:54.982Z,99791.41
2018-01-15T13:54:22.599Z,99787.01
2018-01-15T13:56:50.178Z,99787.78
2018-01-15T13:59:17.803Z,99778.34
2018-01-15T14:01:45.403Z,99783.37
2018-01-15T14:04:13.021Z,99780.17
2018-01-15T14:06:40.621Z,99747.55
2018-01-15T14:09:08.257Z,99735.33
2018-01-15T14:11:35.927Z,99725.31
2018-01-15T14:14:03.518Z,99710.52
2018-01-15T14:16:31.121Z,99704.69
2018-01-15T14:18:58.747Z,99696.44
2018-01-15T14:21:26.337Z,99678.75
2018-01-15T14:23:53.940Z,99676.25
2018-01-15T14:26:21.525Z,99664.42
2018-01-15T14:28:49.134Z,99661.48
2018-01-15T14:31:16.710Z,99651.37
2018-01-15T14:33:44.321Z,99646.31
2018-01-15T14:36:11.941Z,99648.69
2018-01-15T14:38:39.560Z,99643.77
2018-01-15T14:41:07.137Z,99642.69
2018-01-15T14:43:34.762Z,99638.95
2018-01-15T14:46:02.354Z,99624.34
2018-01-15T14:48:30.028Z,99616.33
2018-01-15T14:50:57.673Z,99606.34
2018-01-15T14:53:25.322Z,99591.32
2018-01-15T14:55:52.928Z,99582.79
2018-01-15T14:58:20.535Z,99577.73
2018-01-15T15:00:48.121Z,99578.91
2018-01-15T15:03:15.815Z,99564.17
2018-01-15T15:05:43.382Z,99549.54
2018-01-15T15:08:11.006Z,99551.13
2018-01-15T15:10:38.610Z,99527.84
2018-01-15T15:13:06.225Z,99520.94
2018-01-15T15:15:33.814Z,99506.56
2018-01-15T15:18:01.526Z,99507.52
2018-01-15T15:20:29.148Z,99501.79
2018-01-15T15:22:56.777Z,99487.56
2018-01-15T15:25:24.352Z,99481.59
2018-01-15T15:27:51.984Z,99473.76
2018-01-15T15:30:19.610Z,99450.34
2018-01-15T15:32:47.295Z,99443.83
2018-01-15T15:35:14.885Z,99435.86
2018-01-15T15:37:42.509Z,99429.22
2018-01-15T15:40:10.105Z,99423.22
2018-01-15T15:42:37.735Z,99412.85
2018-01-15T15:45:05.463Z,99401.67
2018-01-15T15:47:33.035Z,99388.51
2018-01-15T15:50:00.626Z,99376.41
2018-01-15T15:52:28.235Z,99368.28
2018-01-15T15:54:55.845Z,99365.62
2018-01-15T15:57:23.452Z,99352.05
2018-01-15T15:59:51.064Z,99348.47
2018-01-15T16:02:18.695Z,99339.43
2018-01-15T16:04:46.295Z,99321.05
2018-01-15T16:07:14.747Z,99326.63
2018-01-15T16:09:42.342Z,99318.65
2018-01-15T16:12:09.954Z,99302.82
2018-01-15T16:14:37.576Z,99305.20
2018-01-15T16:17:05.215Z,99290.42
2018-01-15T16:19:32.957Z,99288.14
2018-01-15T16:22:12.248Z,99275.09
2018-01-15T16:24:39.883Z,99265.11
2018-01-15T16:27:07.494Z,99263.00
2018-01-15T16:29:35.079Z,99255.02
2018-01-15T16:32:02.699Z,99239.32
2018-01-15T16:34:30.326Z,99244.92
2018-01-15T16:36:57.948Z,99234.14
2018-01-15T16:39:25.630Z,99232.83
2018-01-15T16:41:53.293Z,99231.91
2018-01-15T16:44:20.886Z,99223.16
2018-01-15T16:46:48.506Z,99224.36
2018-01-15T16:49:16.116Z,99223.80
2018-01-15T16:51:43.837Z,99219.66
2018-01-15T16:54:11.421Z,99217.30
2018-01-15T16:56:39.119Z,99202.66
2018-01-15T16:59:06.697Z,99196.97
2018-01-15T17:01:34.281Z,99202.38
2018-01-15T17:04:01.913Z,99187.10
2018-01-15T17:06:29.510Z,99165.69
2018-01-15T17:08:57.110Z,99171.92
2018-01-15T17:11:24.686Z,99159.81
2018-01-15T17:13:52.324Z,99140.12
2018-01-15T17:16:19.909Z,99139.86
2018-01-15T17:18:47.541Z,99127.26
2018-01-15T17:21:15.120Z,99122.36
2018-01-15T17:23:42.758Z,99120.95
2018-01-15T17:26:10.364Z,99088.51
2018-01-15T17:28:38.070Z,99093.56
2018-01-15T17:31:05.645Z,99097.14
2018-01-15T17:33:33.241Z,99088.66
2018-01-15T17:36:00.830Z,99069.64
2018-01-15T17:38:28.745Z,99082.80
2018-01-15T17:40:56.367Z,99063.82
2018-01-15T17:43:24.002Z,99065.54
2018-01-15T17:45:51.597Z,99082.17
2018-01-15T17:48:19.218Z,99046.25
2018-01-15T17:50:46.853Z,99047.44
2018-01-15T17:53:14.592Z,99044.80
2018-01-15T17:55:42.173Z,99043.88
2018-01-15T17:58:09.782Z,99035.91
2018-01-15T18:00:37.454Z,99045.59
2018-01-15T18:03:05.079Z,99025.16
2018-01-15T18:05:32.666Z,99025.44
2018-01-15T18:08:00.358Z,99022.37
2018-01-15T18:10:27.923Z,99024.72
2018-01-15T18:12:55.529Z,99019.11
2018-01-15T18:15:23.119Z,99014.81
2018-01-15T18:17:50.708Z,99005.97
2018-01-15T18:20:18.296Z,98990.81
2018-01-15T18:22:45.905Z,98984.68
2018-01-15T18:25:13.506Z,98981.33
2018-01-15T18:27:41.139Z,98969.87
2018-01-15T18:30:08.727Z,98968.47
2018-01-15T18:32:36.403Z,98970.86
2018-01-15T18:35:03.974Z,98962.15
2018-01-15T18:37:31.587Z,98979.85
2018-01-15T18:39:59.194Z,98953.73
2018-01-15T18:42:26.832Z,98943.36
2018-01-15T18:44:54.413Z,98949.75
2018-01-15T18:47:22.046Z,98953.72
2018-01-15T18:49:49.697Z,98928.58
2018-01-15T18:52:17.337Z,98923.41
2018-01-15T18:54:44.996Z,98923.26
2018-01-15T18:57:12.620Z,98918.48
2018-01-15T18:59:40.212Z,98909.52
2018-01-15T19:02:07.932Z,98906.86
2018-01-15T19:04:35.538Z,98895.84
2018-01-15T19:07:03.151Z,98896.50
2018-01-15T19:09:30.753Z,98869.89
2018-01-15T19:11:58.389Z,98899.02
2018-01-15T19:14:26.010Z,98867.99
2018-01-15T19:16:53.702Z,98886.88
2018-01-15T19:19:21.397Z,98870.25
2018-01-15T19:21:49.024Z,98870.91
2018-01-15T19:24:16.611Z,98868.84
2018-01-15T19:26:44.251Z,98859.94
2018-01-15T19:29:11.880Z,98864.31
2018-01-15T19:31:39.510Z,98859.97
2018-01-15T19:34:07.102Z,98853.31
2018-01-15T19:36:38.586Z,98838.70
2018-01-15T19:39:06.246Z,98839.77
2018-01-15T19:41:35.561Z,98844.05
2018-01-15T19:44:08.521Z,98835.35
2018-01-15T19:46:41.597Z,98830.72
2018-01-15T19:49:14.662Z,98823.52
2018-01-15T19:51:47.733Z,98821.23
2018-01-15T19:54:20.870Z,98800.05
2018-01-15T19:56:53.956Z,98815.05
2018-01-15T19:59:27.322Z,98797.49
2018-01-15T20:05:00.651Z,98803.86
2018-01-15T20:07:34.055Z,98796.00
2018-01-15T20:10:07.137Z,98802.24
2018-01-15T20:12:34.749Z,98799.55
2018-01-15T20:15:02.415Z,98792.13
2018-01-15T20:17:30.024Z,98810.23
2018-01-15T20:19:57.856Z,98802.22
2018-01-15T20:22:25.446Z,98791.98
2018-01-15T20:24:53.191Z,98781.27
2018-01-15T20:27:20.770Z,98794.83
2018-01-15T20:29:48.562Z,98786.59
2018-01-15T20:32:16.187Z,98785.72
2018-01-15T20:34:43.822Z,98780.77
2018-01-15T20:37:11.426Z,98795.83
2018-01-15T20:39:39.079Z,98774.05
2018-01-15T20:42:06.702Z,98780.14
2018-01-15T20:44:34.456Z,98774.99
2018-01-15T20:47:02.042Z,98771.60
2018-01-15T20:49:29.662Z,98768.97
2018-01-15T20:51:57.246Z,98765.87
2018-01-15T20:54:24.868Z,98754.20
2018-01-15T20:56:52.466Z,98757.45
2018-01-15T20:59:20.096Z,98749.88
2018-01-15T21:01:47.724Z,98739.27
2018-01-15T21:04:15.310Z,98745.89
2018-01-15T21:06:42.946Z,98748.93
2018-01-15T21:09:10.554Z,98729.13
2018-01-15T21:11:38.235Z,98738.84
2018-01-15T21:14:05.838Z,98729.80
2018-01-15T21:16:33.473Z,98725.52
2018-01-15T21:19:01.102Z,98740.66
2018-01-15T21:21:28.734Z,98733.35
2018-01-15T21:23:56.370Z,98733.50
2018-01-15T21:26:23.976Z,98722.02
2018-01-15T21:28:51.607Z,98726.30
2018-01-15T21:31:19.249Z,98713.58
2018-01-15T21:33:46.880Z,98716.64
2018-01-15T21:36:14.589Z,98725.11
2018-01-15T21:38:42.220Z,98730.55
2018-01-15T21:41:09.823Z,98733.09
2018-01-15T21:43:37.484Z,98725.78
2018-01-15T21:46:05.075Z,98723.67
2018-01-15T21:48:32.703Z,98738.67
2018-01-15T21:51:00.339Z,98720.03
2018-01-15T21:53:27.976Z,98723.20
2018-01-15T21:55:55.588Z,98724.92
2018-01-15T21:58:23.221Z,98724.08
2018-01-15T22:00:50.970Z,98724.92
2018-01-15T22:03:18.597Z,98729.03
2018-01-15T22:05:46.189Z,98728.45
2018-01-15T22:08:13.769Z,98725.53
2018-01-15T22:10:41.374Z,98731.08
2018-01-15T22:13:09.158Z,98724.92
2018-01-15T22:15:36.743Z,98720.91
2018-01-15T22:18:04.415Z,98724.03
2018-01-15T22:20:32.024Z,98726.86
2018-01-15T22:22:59.657Z,98725.27
2018-01-15T22:25:27.253Z,98726.61
2018-01-15T22:27:54.858Z,98727.91
2018-01-15T22:30:22.474Z,98722.41
2018-01-15T22:32:50.077Z,98725.63
2018-01-15T22:35:17.673Z,98716.80
2018-01-15T22:37:45.459Z,98708.50
2018-01-15T22:40:13.050Z,98706.27
2018-01-15T22:42:40.652Z,98700.66
2018-01-15T22:45:08.241Z,98704.50
2018-01-15T22:47:35.851Z,98708.32
2018-01-15T22:50:03.450Z,98706.47
2018-01-15T22:52:31.091Z,98701.81
2018-01-15T22:54:58.721Z,98701.18
2018-01-15T22:57:26.321Z,98696.52
2018-01-15T22:59:53.982Z,98702.66
2018-01-15T23:02:21.605Z,98708.27
2018-01-15T23:04:49.194Z,98718.42
2018-01-15T23:07:16.819Z,98713.65
2018-01-15T23:09:44.439Z,98715.61
2018-01-15T23:12:12.077Z,98709.11
2018-01-15T23:14:39.698Z,98713.01
2018-01-15T23:17:07.406Z,98711.64
2018-01-15T23:19:35.005Z,98702.91
2018-01-15T23:22:02.626Z,98710.19
2018-01-15T23:24:30.216Z,98713.84
2018-01-15T23:26:57.850Z,98727.47
2018-01-15T23:29:25.428Z,98712.22
2018-01-15T23:31:53.069Z,98717.66
2018-01-15T23:34:20.671Z,98728.47
2018-01-15T23:36:48.334Z,98729.76
2018-01-15T23:39:15.921Z,98750.34
2018-01-15T23:41:43.539Z,98743.45
2018-01-15T23:44:11.126Z,98754.96
2018-01-15T23:46:38.742Z,98780.17
2018-01-15T23:49:06.386Z,98781.68
2018-01-15T23:51:34.006Z,98795.15
2018-01-15T23:54:01.598Z,98783.86
2018-01-15T23:56:29.327Z,98783.23
2018-01-15T23:58:56.937Z,98797.28
